sensor_id;sensor_type;location;lat;lon;timestamp;P1;durP1;ratioP1;P2;durP2;ratioP2
37777;SDS011;23615;51.506;7.678;2023-03-15T02:13:22;5.13;;;4.47;;
37777;SDS011;23615;51.506;7.678;2023-03-15T02:15:50;8.15;;;4.38;;
37777;SDS011;23615;51.506;7.678;2023-03-15T02:18:17;5.55;;;4.30;;
37777;SDS011;23615;51.506;7.678;2023-03-15T02:23:30;6.60;;;4.45;;
37777;SDS011;23615;51.506;7.678;2023-03-15T02:28:37;4.87;;;3.60;;
37777;SDS011;23615;51.506;7.678;2023-03-15T02:31:04;4.00;;;2.50;;
37777;SDS011;23615;51.506;7.678;2023-03-15T02:33:51;2.93;;;2.40;;
37777;SDS011;23615;51.506;7.678;2023-03-15T02:36:18;1.90;;;1.70;;
37777;SDS011;23615;51.506;7.678;2023-03-15T02:38:45;3.45;;;1.90;;
37777;SDS011;23615;51.506;7.678;2023-03-15T02:41:12;2.90;;;1.80;;
37777;SDS011;23615;51.506;7.678;2023-03-15T02:43:42;2.30;;;1.65;;
37777;SDS011;23615;51.506;7.678;2023-03-15T02:46:08;2.20;;;1.70;;
37777;SDS011;23615;51.506;7.678;2023-03-15T02:48:34;3.78;;;2.20;;
37777;SDS011;23615;51.506;7.678;2023-03-15T02:51:01;2.45;;;2.20;;
37777;SDS011;23615;51.506;7.678;2023-03-15T02:53:28;2.25;;;2.00;;
37777;SDS011;23615;51.506;7.678;2023-03-15T02:55:54;3.63;;;2.45;;
37777;SDS011;23615;51.506;7.678;2023-03-15T02:58:20;2.75;;;2.53;;
37777;SDS011;23615;51.506;7.678;2023-03-15T03:00:45;3.97;;;2.78;;
37777;SDS011;23615;51.506;7.678;2023-03-15T03:03:10;2.90;;;2.70;;
37777;SDS011;23615;51.506;7.678;2023-03-15T03:05:36;2.87;;;2.67;;
37777;SDS011;23615;51.506;7.678;2023-03-15T03:08:01;4.73;;;3.03;;
37777;SDS011;23615;51.506;7.678;2023-03-15T03:10:27;3.30;;;3.00;;
37777;SDS011;23615;51.506;7.678;2023-03-15T03:12:52;4.43;;;3.23;;
37777;SDS011;23615;51.506;7.678;2023-03-15T03:21:36;4.10;;;3.65;;
37777;SDS011;23615;51.506;7.678;2023-03-15T03:24:02;4.00;;;3.30;;
37777;SDS011;23615;51.506;7.678;2023-03-15T03:26:27;4.20;;;3.80;;
37777;SDS011;23615;51.506;7.678;2023-03-15T03:28:56;5.32;;;3.65;;
37777;SDS011;23615;51.506;7.678;2023-03-15T03:31:23;4.80;;;3.37;;
37777;SDS011;23615;51.506;7.678;2023-03-15T03:33:50;3.55;;;3.20;;
37777;SDS011;23615;51.506;7.678;2023-03-15T03:36:16;4.45;;;3.90;;
37777;SDS011;23615;51.506;7.678;2023-03-15T03:38:42;5.53;;;3.53;;
37777;SDS011;23615;51.506;7.678;2023-03-15T03:41:09;4.32;;;3.92;;
37777;SDS011;23615;51.506;7.678;2023-03-15T03:43:35;4.45;;;4.05;;
37777;SDS011;23615;51.506;7.678;2023-03-15T03:46:01;6.30;;;4.78;;
37777;SDS011;23615;51.506;7.678;2023-03-15T03:48:45;5.23;;;4.73;;
37777;SDS011;23615;51.506;7.678;2023-03-15T03:51:10;7.00;;;4.77;;
37777;SDS011;23615;51.506;7.678;2023-03-15T03:53:35;5.83;;;5.17;;
37777;SDS011;23615;51.506;7.678;2023-03-15T03:56:03;6.38;;;4.82;;
37777;SDS011;23615;51.506;7.678;2023-03-15T03:58:29;5.23;;;4.67;;
37777;SDS011;23615;51.506;7.678;2023-03-15T04:00:54;5.50;;;4.90;;
37777;SDS011;23615;51.506;7.678;2023-03-15T04:03:20;6.47;;;5.10;;
37777;SDS011;23615;51.506;7.678;2023-03-15T04:05:51;6.22;;;5.20;;
37777;SDS011;23615;51.506;7.678;2023-03-15T04:08:17;6.97;;;5.43;;
37777;SDS011;23615;51.506;7.678;2023-03-15T04:10:42;6.20;;;5.60;;
37777;SDS011;23615;51.506;7.678;2023-03-15T04:13:07;7.33;;;5.73;;
37777;SDS011;23615;51.506;7.678;2023-03-15T04:15:32;6.50;;;5.73;;
37777;SDS011;23615;51.506;7.678;2023-03-15T04:17:58;6.00;;;5.40;;
37777;SDS011;23615;51.506;7.678;2023-03-15T04:20:24;6.23;;;5.57;;
37777;SDS011;23615;51.506;7.678;2023-03-15T04:22:50;8.82;;;6.57;;
37777;SDS011;23615;51.506;7.678;2023-03-15T04:25:17;6.43;;;5.18;;
37777;SDS011;23615;51.506;7.678;2023-03-15T04:27:43;7.18;;;5.63;;
37777;SDS011;23615;51.506;7.678;2023-03-15T04:30:09;6.83;;;5.90;;
37777;SDS011;23615;51.506;7.678;2023-03-15T04:32:34;6.93;;;5.40;;
37777;SDS011;23615;51.506;7.678;2023-03-15T04:35:00;6.33;;;5.20;;
37777;SDS011;23615;51.506;7.678;2023-03-15T04:37:26;5.32;;;4.82;;
37777;SDS011;23615;51.506;7.678;2023-03-15T04:39:52;5.72;;;5.18;;
37777;SDS011;23615;51.506;7.678;2023-03-15T04:42:17;8.25;;;5.53;;
37777;SDS011;23615;51.506;7.678;2023-03-15T04:44:42;6.10;;;4.95;;
37777;SDS011;23615;51.506;7.678;2023-03-15T04:47:08;6.53;;;5.07;;
37777;SDS011;23615;51.506;7.678;2023-03-15T04:49:33;6.57;;;5.97;;
37777;SDS011;23615;51.506;7.678;2023-03-15T04:51:59;7.83;;;5.53;;
37777;SDS011;23615;51.506;7.678;2023-03-15T04:54:25;9.90;;;5.97;;
37777;SDS011;23615;51.506;7.678;2023-03-15T04:56:50;6.33;;;5.00;;
37777;SDS011;23615;51.506;7.678;2023-03-15T04:59:15;8.00;;;5.10;;
37777;SDS011;23615;51.506;7.678;2023-03-15T05:01:41;6.77;;;5.43;;
37777;SDS011;23615;51.506;7.678;2023-03-15T05:04:06;7.00;;;5.30;;
37777;SDS011;23615;51.506;7.678;2023-03-15T05:06:32;6.03;;;4.80;;
37777;SDS011;23615;51.506;7.678;2023-03-15T05:08:57;7.70;;;5.43;;
37777;SDS011;23615;51.506;7.678;2023-03-15T05:11:22;5.17;;;4.33;;
37777;SDS011;23615;51.506;7.678;2023-03-15T05:13:48;4.93;;;4.07;;
37777;SDS011;23615;51.506;7.678;2023-03-15T05:16:13;5.00;;;4.03;;
37777;SDS011;23615;51.506;7.678;2023-03-15T05:18:40;5.82;;;4.10;;
37777;SDS011;23615;51.506;7.678;2023-03-15T05:21:05;5.80;;;4.43;;
37777;SDS011;23615;51.506;7.678;2023-03-15T05:23:31;5.27;;;3.90;;
37777;SDS011;23615;51.506;7.678;2023-03-15T05:25:58;5.28;;;4.20;;
37777;SDS011;23615;51.506;7.678;2023-03-15T05:28:24;4.40;;;4.00;;
37777;SDS011;23615;51.506;7.678;2023-03-15T05:30:50;6.15;;;3.67;;
37777;SDS011;23615;51.506;7.678;2023-03-15T05:33:16;4.30;;;3.70;;
37777;SDS011;23615;51.506;7.678;2023-03-15T05:35:42;4.32;;;3.42;;
37777;SDS011;23615;51.506;7.678;2023-03-15T05:38:08;4.65;;;3.63;;
37777;SDS011;23615;51.506;7.678;2023-03-15T05:40:38;6.20;;;4.10;;
37777;SDS011;23615;51.506;7.678;2023-03-15T05:43:03;5.97;;;3.70;;
37777;SDS011;23615;51.506;7.678;2023-03-15T05:45:29;4.70;;;4.17;;
37777;SDS011;23615;51.506;7.678;2023-03-15T05:47:54;5.50;;;4.05;;
37777;SDS011;23615;51.506;7.678;2023-03-15T05:50:19;4.43;;;3.70;;
37777;SDS011;23615;51.506;7.678;2023-03-15T05:52:45;3.53;;;3.07;;
37777;SDS011;23615;51.506;7.678;2023-03-15T05:55:11;5.57;;;3.57;;
37777;SDS011;23615;51.506;7.678;2023-03-15T05:57:36;4.83;;;3.57;;
37777;SDS011;23615;51.506;7.678;2023-03-15T06:00:01;4.20;;;3.30;;
37777;SDS011;23615;51.506;7.678;2023-03-15T06:02:29;5.05;;;3.75;;
37777;SDS011;23615;51.506;7.678;2023-03-15T06:04:54;3.85;;;3.38;;
37777;SDS011;23615;51.506;7.678;2023-03-15T06:07:19;3.72;;;3.00;;
37777;SDS011;23615;51.506;7.678;2023-03-15T06:09:45;3.83;;;3.15;;
37777;SDS011;23615;51.506;7.678;2023-03-15T06:12:10;5.00;;;3.00;;
37777;SDS011;23615;51.506;7.678;2023-03-15T06:14:35;3.28;;;2.50;;
37777;SDS011;23615;51.506;7.678;2023-03-15T06:17:01;4.97;;;2.90;;
37777;SDS011;23615;51.506;7.678;2023-03-15T06:19:26;5.03;;;2.77;;
37777;SDS011;23615;51.506;7.678;2023-03-15T06:21:51;4.93;;;2.58;;
37777;SDS011;23615;51.506;7.678;2023-03-15T06:24:16;3.20;;;2.47;;
37777;SDS011;23615;51.506;7.678;2023-03-15T06:26:42;5.10;;;3.08;;
37777;SDS011;23615;51.506;7.678;2023-03-15T06:29:07;4.38;;;3.08;;
37777;SDS011;23615;51.506;7.678;2023-03-15T06:31:33;3.00;;;2.55;;
37777;SDS011;23615;51.506;7.678;2023-03-15T06:33:58;3.38;;;2.88;;
37777;SDS011;23615;51.506;7.678;2023-03-15T06:36:23;3.03;;;2.03;;
37777;SDS011;23615;51.506;7.678;2023-03-15T06:38:49;3.63;;;2.30;;
37777;SDS011;23615;51.506;7.678;2023-03-15T06:41:17;4.78;;;2.40;;
37777;SDS011;23615;51.506;7.678;2023-03-15T06:43:43;7.57;;;2.58;;
37777;SDS011;23615;51.506;7.678;2023-03-15T06:46:08;6.37;;;2.83;;
37777;SDS011;23615;51.506;7.678;2023-03-15T06:48:33;6.93;;;2.65;;
37777;SDS011;23615;51.506;7.678;2023-03-15T06:50:59;4.43;;;2.47;;
37777;SDS011;23615;51.506;7.678;2023-03-15T06:53:24;4.22;;;2.80;;
37777;SDS011;23615;51.506;7.678;2023-03-15T06:55:49;3.67;;;2.65;;
37777;SDS011;23615;51.506;7.678;2023-03-15T06:58:16;4.50;;;3.05;;
37777;SDS011;23615;51.506;7.678;2023-03-15T07:00:41;5.65;;;3.05;;
37777;SDS011;23615;51.506;7.678;2023-03-15T07:03:08;5.43;;;3.28;;
37777;SDS011;23615;51.506;7.678;2023-03-15T07:05:33;6.13;;;3.63;;
37777;SDS011;23615;51.506;7.678;2023-03-15T07:07:58;4.60;;;3.80;;
37777;SDS011;23615;51.506;7.678;2023-03-15T07:10:24;6.47;;;4.20;;
37777;SDS011;23615;51.506;7.678;2023-03-15T07:12:49;5.73;;;3.70;;
37777;SDS011;23615;51.506;7.678;2023-03-15T07:15:14;4.30;;;3.90;;
37777;SDS011;23615;51.506;7.678;2023-03-15T07:17:40;5.73;;;3.97;;
37777;SDS011;23615;51.506;7.678;2023-03-15T07:20:05;4.27;;;3.80;;
37777;SDS011;23615;51.506;7.678;2023-03-15T07:22:31;6.43;;;4.00;;
37777;SDS011;23615;51.506;7.678;2023-03-15T07:24:57;7.50;;;5.07;;
37777;SDS011;23615;51.506;7.678;2023-03-15T07:27:22;5.38;;;4.78;;
37777;SDS011;23615;51.506;7.678;2023-03-15T07:29:47;7.35;;;4.50;;
37777;SDS011;23615;51.506;7.678;2023-03-15T07:32:13;7.30;;;5.20;;
37777;SDS011;23615;51.506;7.678;2023-03-15T07:34:38;6.60;;;5.10;;
37777;SDS011;23615;51.506;7.678;2023-03-15T07:37:04;6.75;;;5.15;;
37777;SDS011;23615;51.506;7.678;2023-03-15T07:39:29;6.50;;;5.33;;
37777;SDS011;23615;51.506;7.678;2023-03-15T07:41:56;7.18;;;5.10;;
37777;SDS011;23615;51.506;7.678;2023-03-15T07:44:23;8.30;;;5.40;;
37777;SDS011;23615;51.506;7.678;2023-03-15T07:46:48;6.47;;;4.77;;
37777;SDS011;23615;51.506;7.678;2023-03-15T07:49:13;6.03;;;4.80;;
37777;SDS011;23615;51.506;7.678;2023-03-15T07:51:39;7.03;;;4.60;;
37777;SDS011;23615;51.506;7.678;2023-03-15T07:54:04;5.03;;;4.50;;
37777;SDS011;23615;51.506;7.678;2023-03-15T07:56:29;6.87;;;4.00;;
37777;SDS011;23615;51.506;7.678;2023-03-15T07:58:54;6.63;;;4.10;;
37777;SDS011;23615;51.506;7.678;2023-03-15T08:01:20;6.87;;;4.40;;
37777;SDS011;23615;51.506;7.678;2023-03-15T08:03:45;4.63;;;3.87;;
37777;SDS011;23615;51.506;7.678;2023-03-15T08:06:11;5.10;;;3.73;;
37777;SDS011;23615;51.506;7.678;2023-03-15T08:08:36;4.70;;;3.97;;
37777;SDS011;23615;51.506;7.678;2023-03-15T08:11:02;5.80;;;4.10;;
37777;SDS011;23615;51.506;7.678;2023-03-15T08:13:28;6.78;;;4.68;;
37777;SDS011;23615;51.506;7.678;2023-03-15T08:15:54;5.93;;;4.30;;
37777;SDS011;23615;51.506;7.678;2023-03-15T08:18:19;5.00;;;3.57;;
37777;SDS011;23615;51.506;7.678;2023-03-15T08:20:44;6.87;;;4.47;;
37777;SDS011;23615;51.506;7.678;2023-03-15T08:23:10;4.87;;;3.60;;
37777;SDS011;23615;51.506;7.678;2023-03-15T08:25:40;6.47;;;4.72;;
37777;SDS011;23615;51.506;7.678;2023-03-15T08:28:06;6.70;;;5.05;;
37777;SDS011;23615;51.506;7.678;2023-03-15T08:30:32;6.57;;;4.97;;
37777;SDS011;23615;51.506;7.678;2023-03-15T08:32:57;5.83;;;4.50;;
37777;SDS011;23615;51.506;7.678;2023-03-15T08:35:22;6.03;;;4.43;;
37777;SDS011;23615;51.506;7.678;2023-03-15T08:37:48;7.93;;;3.77;;
37777;SDS011;23615;51.506;7.678;2023-03-15T08:40:16;5.40;;;3.67;;
37777;SDS011;23615;51.506;7.678;2023-03-15T08:42:49;6.75;;;3.10;;
37777;SDS011;23615;51.506;7.678;2023-03-15T08:45:16;5.22;;;2.50;;
37777;SDS011;23615;51.506;7.678;2023-03-15T08:47:42;4.73;;;2.47;;
37777;SDS011;23615;51.506;7.678;2023-03-15T08:50:08;4.00;;;2.43;;
37777;SDS011;23615;51.506;7.678;2023-03-15T08:52:36;6.20;;;2.20;;
37777;SDS011;23615;51.506;7.678;2023-03-15T08:55:01;3.07;;;2.47;;
37777;SDS011;23615;51.506;7.678;2023-03-15T08:57:28;4.18;;;2.72;;
37777;SDS011;23615;51.506;7.678;2023-03-15T08:59:54;5.88;;;2.20;;
37777;SDS011;23615;51.506;7.678;2023-03-15T09:02:20;6.27;;;2.83;;
37777;SDS011;23615;51.506;7.678;2023-03-15T09:04:47;5.10;;;2.75;;
37777;SDS011;23615;51.506;7.678;2023-03-15T09:07:12;4.07;;;2.57;;
37777;SDS011;23615;51.506;7.678;2023-03-15T09:09:39;6.70;;;2.42;;
37777;SDS011;23615;51.506;7.678;2023-03-15T09:12:05;4.70;;;2.80;;
37777;SDS011;23615;51.506;7.678;2023-03-15T09:14:30;7.20;;;4.10;;
37777;SDS011;23615;51.506;7.678;2023-03-15T09:16:58;6.97;;;3.25;;
37777;SDS011;23615;51.506;7.678;2023-03-15T09:19:24;10.10;;;3.50;;
37777;SDS011;23615;51.506;7.678;2023-03-15T09:21:49;6.03;;;3.70;;
37777;SDS011;23615;51.506;7.678;2023-03-15T09:24:15;6.75;;;3.03;;
37777;SDS011;23615;51.506;7.678;2023-03-15T09:26:40;5.63;;;1.90;;
37777;SDS011;23615;51.506;7.678;2023-03-15T09:29:05;8.50;;;3.17;;
37777;SDS011;23615;51.506;7.678;2023-03-15T09:31:32;5.80;;;1.83;;
37777;SDS011;23615;51.506;7.678;2023-03-15T09:33:58;5.97;;;2.10;;
37777;SDS011;23615;51.506;7.678;2023-03-15T09:36:23;4.97;;;2.37;;
37777;SDS011;23615;51.506;7.678;2023-03-15T09:38:48;4.27;;;2.57;;
37777;SDS011;23615;51.506;7.678;2023-03-15T09:41:33;10.83;;;3.70;;
37777;SDS011;23615;51.506;7.678;2023-03-15T09:44:13;8.77;;;3.97;;
37777;SDS011;23615;51.506;7.678;2023-03-15T09:54:55;7.25;;;3.20;;
37777;SDS011;23615;51.506;7.678;2023-03-15T09:57:27;7.72;;;3.60;;
37777;SDS011;23615;51.506;7.678;2023-03-15T10:00:10;6.25;;;3.50;;
37777;SDS011;23615;51.506;7.678;2023-03-15T10:02:41;6.07;;;2.85;;
37777;SDS011;23615;51.506;7.678;2023-03-15T10:05:13;5.75;;;2.63;;
37777;SDS011;23615;51.506;7.678;2023-03-15T10:07:43;6.30;;;3.13;;
37777;SDS011;23615;51.506;7.678;2023-03-15T10:10:23;7.45;;;3.58;;
37777;SDS011;23615;51.506;7.678;2023-03-15T10:15:47;5.57;;;1.67;;
37777;SDS011;23615;51.506;7.678;2023-03-15T10:21:10;5.22;;;1.80;;
37777;SDS011;23615;51.506;7.678;2023-03-15T10:23:50;6.30;;;1.57;;
37777;SDS011;23615;51.506;7.678;2023-03-15T10:26:19;4.65;;;1.20;;
37777;SDS011;23615;51.506;7.678;2023-03-15T10:28:49;6.45;;;1.83;;
37777;SDS011;23615;51.506;7.678;2023-03-15T10:31:17;7.25;;;1.42;;
37777;SDS011;23615;51.506;7.678;2023-03-15T10:33:46;5.28;;;2.08;;
37777;SDS011;23615;51.506;7.678;2023-03-15T10:36:18;6.32;;;1.67;;
37777;SDS011;23615;51.506;7.678;2023-03-15T10:38:45;6.28;;;1.73;;
37777;SDS011;23615;51.506;7.678;2023-03-15T10:41:13;5.63;;;1.73;;
37777;SDS011;23615;51.506;7.678;2023-03-15T10:43:55;6.43;;;2.72;;
37777;SDS011;23615;51.506;7.678;2023-03-15T10:46:23;6.65;;;2.30;;
37777;SDS011;23615;51.506;7.678;2023-03-15T10:48:55;7.53;;;3.20;;
37777;SDS011;23615;51.506;7.678;2023-03-15T10:51:31;4.85;;;2.60;;
37777;SDS011;23615;51.506;7.678;2023-03-15T10:54:03;5.97;;;2.60;;
37777;SDS011;23615;51.506;7.678;2023-03-15T10:56:36;7.68;;;2.85;;
37777;SDS011;23615;51.506;7.678;2023-03-15T10:59:14;7.70;;;1.48;;
37777;SDS011;23615;51.506;7.678;2023-03-15T11:01:41;5.45;;;1.38;;
37777;SDS011;23615;51.506;7.678;2023-03-15T11:04:20;3.65;;;1.05;;
37777;SDS011;23615;51.506;7.678;2023-03-15T11:09:37;3.55;;;1.23;;
37777;SDS011;23615;51.506;7.678;2023-03-15T11:12:32;4.90;;;1.17;;
37777;SDS011;23615;51.506;7.678;2023-03-15T11:15:10;6.43;;;1.10;;
37777;SDS011;23615;51.506;7.678;2023-03-15T11:17:45;6.03;;;1.13;;
37777;SDS011;23615;51.506;7.678;2023-03-15T11:20:29;3.95;;;1.45;;
37777;SDS011;23615;51.506;7.678;2023-03-15T11:22:59;6.50;;;1.70;;
37777;SDS011;23615;51.506;7.678;2023-03-15T11:25:30;3.67;;;0.70;;
37777;SDS011;23615;51.506;7.678;2023-03-15T11:27:57;3.75;;;0.90;;
37777;SDS011;23615;51.506;7.678;2023-03-15T11:30:26;4.07;;;0.90;;
37777;SDS011;23615;51.506;7.678;2023-03-15T11:32:53;4.77;;;0.93;;
37777;SDS011;23615;51.506;7.678;2023-03-15T11:35:23;3.75;;;0.77;;
37777;SDS011;23615;51.506;7.678;2023-03-15T11:37:59;3.63;;;0.80;;
37777;SDS011;23615;51.506;7.678;2023-03-15T11:40:32;4.10;;;0.90;;
37777;SDS011;23615;51.506;7.678;2023-03-15T11:43:04;5.70;;;1.38;;
37777;SDS011;23615;51.506;7.678;2023-03-15T11:48:30;5.00;;;0.80;;
37777;SDS011;23615;51.506;7.678;2023-03-15T11:51:00;4.07;;;1.03;;
37777;SDS011;23615;51.506;7.678;2023-03-15T11:53:31;3.30;;;0.52;;
37777;SDS011;23615;51.506;7.678;2023-03-15T11:59:12;4.35;;;0.85;;
37777;SDS011;23615;51.506;7.678;2023-03-15T12:06:54;3.53;;;1.10;;
37777;SDS011;23615;51.506;7.678;2023-03-15T12:12:03;3.25;;;0.60;;
37777;SDS011;23615;51.506;7.678;2023-03-15T12:14:34;2.45;;;0.65;;
37777;SDS011;23615;51.506;7.678;2023-03-15T12:19:56;3.20;;;0.85;;
37777;SDS011;23615;51.506;7.678;2023-03-15T12:22:29;3.60;;;1.10;;
37777;SDS011;23615;51.506;7.678;2023-03-15T12:24:57;3.00;;;0.70;;
37777;SDS011;23615;51.506;7.678;2023-03-15T12:27:35;1.75;;;0.70;;
37777;SDS011;23615;51.506;7.678;2023-03-15T12:30:03;1.90;;;0.30;;
37777;SDS011;23615;51.506;7.678;2023-03-15T12:32:30;1.65;;;0.40;;
37777;SDS011;23615;51.506;7.678;2023-03-15T12:35:15;3.08;;;0.50;;
37777;SDS011;23615;51.506;7.678;2023-03-15T12:37:44;4.20;;;0.67;;
37777;SDS011;23615;51.506;7.678;2023-03-15T12:47:43;3.75;;;0.70;;
37777;SDS011;23615;51.506;7.678;2023-03-15T12:53:03;2.90;;;0.57;;
37777;SDS011;23615;51.506;7.678;2023-03-15T12:55:47;3.63;;;0.70;;
37777;SDS011;23615;51.506;7.678;2023-03-15T12:58:17;1.80;;;0.47;;
37777;SDS011;23615;51.506;7.678;2023-03-15T13:00:45;2.23;;;0.50;;
37777;SDS011;23615;51.506;7.678;2023-03-15T13:03:32;2.00;;;0.52;;
37777;SDS011;23615;51.506;7.678;2023-03-15T13:06:04;2.33;;;0.30;;
37777;SDS011;23615;51.506;7.678;2023-03-15T13:08:40;2.92;;;0.43;;
37777;SDS011;23615;51.506;7.678;2023-03-15T13:16:32;3.15;;;0.60;;
37777;SDS011;23615;51.506;7.678;2023-03-15T13:26:58;2.10;;;0.30;;
37777;SDS011;23615;51.506;7.678;2023-03-15T13:29:30;2.33;;;0.45;;
37777;SDS011;23615;51.506;7.678;2023-03-15T13:32:01;2.17;;;0.37;;
37777;SDS011;23615;51.506;7.678;2023-03-15T13:34:41;2.28;;;0.38;;
37777;SDS011;23615;51.506;7.678;2023-03-15T13:37:13;2.20;;;0.30;;
37777;SDS011;23615;51.506;7.678;2023-03-15T13:42:24;3.00;;;0.40;;
37777;SDS011;23615;51.506;7.678;2023-03-15T13:47:39;2.25;;;0.30;;
37777;SDS011;23615;51.506;7.678;2023-03-15T13:50:07;1.40;;;0.20;;
37777;SDS011;23615;51.506;7.678;2023-03-15T13:52:36;2.70;;;0.32;;
37777;SDS011;23615;51.506;7.678;2023-03-15T13:55:02;2.20;;;0.30;;
37777;SDS011;23615;51.506;7.678;2023-03-15T13:57:27;1.58;;;0.50;;
37777;SDS011;23615;51.506;7.678;2023-03-15T14:00:01;1.17;;;0.30;;
37777;SDS011;23615;51.506;7.678;2023-03-15T14:02:36;1.57;;;0.33;;
37777;SDS011;23615;51.506;7.678;2023-03-15T14:05:30;2.00;;;0.40;;
37777;SDS011;23615;51.506;7.678;2023-03-15T14:07:59;1.40;;;0.22;;
37777;SDS011;23615;51.506;7.678;2023-03-15T14:10:31;1.70;;;0.40;;
37777;SDS011;23615;51.506;7.678;2023-03-15T14:16:06;1.67;;;0.28;;
37777;SDS011;23615;51.506;7.678;2023-03-15T14:18:38;1.15;;;0.20;;
37777;SDS011;23615;51.506;7.678;2023-03-15T14:21:17;0.70;;;0.20;;
37777;SDS011;23615;51.506;7.678;2023-03-15T14:23:47;1.67;;;0.20;;
37777;SDS011;23615;51.506;7.678;2023-03-15T14:26:26;1.50;;;0.32;;
37777;SDS011;23615;51.506;7.678;2023-03-15T14:28:56;2.30;;;0.30;;
37777;SDS011;23615;51.506;7.678;2023-03-15T14:31:24;2.03;;;0.35;;
37777;SDS011;23615;51.506;7.678;2023-03-15T14:33:55;1.30;;;0.38;;
37777;SDS011;23615;51.506;7.678;2023-03-15T14:36:32;0.80;;;0.20;;
37777;SDS011;23615;51.506;7.678;2023-03-15T14:39:03;1.45;;;0.30;;
37777;SDS011;23615;51.506;7.678;2023-03-15T14:41:37;4.82;;;0.80;;
37777;SDS011;23615;51.506;7.678;2023-03-15T14:44:02;1.07;;;0.40;;
37777;SDS011;23615;51.506;7.678;2023-03-15T14:46:29;2.37;;;0.30;;
37777;SDS011;23615;51.506;7.678;2023-03-15T14:48:55;2.10;;;0.32;;
37777;SDS011;23615;51.506;7.678;2023-03-15T14:51:21;1.08;;;0.30;;
37777;SDS011;23615;51.506;7.678;2023-03-15T14:53:49;1.30;;;0.20;;
37777;SDS011;23615;51.506;7.678;2023-03-15T14:56:17;1.57;;;0.40;;
37777;SDS011;23615;51.506;7.678;2023-03-15T14:58:43;1.73;;;0.55;;
37777;SDS011;23615;51.506;7.678;2023-03-15T15:01:10;0.40;;;0.23;;
37777;SDS011;23615;51.506;7.678;2023-03-15T15:06:05;1.50;;;0.30;;
37777;SDS011;23615;51.506;7.678;2023-03-15T15:08:33;0.82;;;0.20;;
37777;SDS011;23615;51.506;7.678;2023-03-15T15:11:02;1.33;;;0.60;;
37777;SDS011;23615;51.506;7.678;2023-03-15T15:13:29;0.63;;;0.25;;
37777;SDS011;23615;51.506;7.678;2023-03-15T15:15:56;1.63;;;0.52;;
37777;SDS011;23615;51.506;7.678;2023-03-15T15:18:26;1.58;;;0.30;;
37777;SDS011;23615;51.506;7.678;2023-03-15T15:20:57;0.35;;;0.20;;
37777;SDS011;23615;51.506;7.678;2023-03-15T15:23:25;1.52;;;0.20;;
37777;SDS011;23615;51.506;7.678;2023-03-15T15:25:59;1.40;;;0.30;;
37777;SDS011;23615;51.506;7.678;2023-03-15T15:28:27;1.27;;;0.20;;
37777;SDS011;23615;51.506;7.678;2023-03-15T15:30:54;1.35;;;0.25;;
37777;SDS011;23615;51.506;7.678;2023-03-15T15:33:19;0.67;;;0.10;;
37777;SDS011;23615;51.506;7.678;2023-03-15T15:35:44;1.00;;;0.10;;
37777;SDS011;23615;51.506;7.678;2023-03-15T15:38:10;1.10;;;0.20;;
37777;SDS011;23615;51.506;7.678;2023-03-15T15:40:36;0.93;;;0.10;;
37777;SDS011;23615;51.506;7.678;2023-03-15T15:43:02;0.85;;;0.30;;
37777;SDS011;23615;51.506;7.678;2023-03-15T15:45:28;0.55;;;0.20;;
37777;SDS011;23615;51.506;7.678;2023-03-15T15:47:54;0.50;;;0.13;;
37777;SDS011;23615;51.506;7.678;2023-03-15T15:50:19;1.83;;;0.20;;
37777;SDS011;23615;51.506;7.678;2023-03-15T15:52:49;0.98;;;0.40;;
37777;SDS011;23615;51.506;7.678;2023-03-15T15:55:17;0.90;;;0.20;;
37777;SDS011;23615;51.506;7.678;2023-03-15T15:57:46;2.13;;;0.23;;
37777;SDS011;23615;51.506;7.678;2023-03-15T16:00:15;1.45;;;0.30;;
37777;SDS011;23615;51.506;7.678;2023-03-15T16:02:47;1.17;;;0.30;;
37777;SDS011;23615;51.506;7.678;2023-03-15T16:05:13;1.47;;;0.20;;
37777;SDS011;23615;51.506;7.678;2023-03-15T16:07:39;1.87;;;0.30;;
37777;SDS011;23615;51.506;7.678;2023-03-15T16:10:17;2.65;;;0.20;;
37777;SDS011;23615;51.506;7.678;2023-03-15T16:12:42;1.40;;;0.30;;
37777;SDS011;23615;51.506;7.678;2023-03-15T16:15:09;1.70;;;0.20;;
37777;SDS011;23615;51.506;7.678;2023-03-15T16:17:36;2.40;;;0.30;;
37777;SDS011;23615;51.506;7.678;2023-03-15T16:20:01;1.00;;;0.20;;
37777;SDS011;23615;51.506;7.678;2023-03-15T16:22:30;2.47;;;0.30;;
37777;SDS011;23615;51.506;7.678;2023-03-15T16:24:56;2.30;;;0.40;;
37777;SDS011;23615;51.506;7.678;2023-03-15T16:27:23;0.90;;;0.32;;
37777;SDS011;23615;51.506;7.678;2023-03-15T16:29:50;1.42;;;0.30;;
37777;SDS011;23615;51.506;7.678;2023-03-15T16:32:19;1.07;;;0.33;;
37777;SDS011;23615;51.506;7.678;2023-03-15T16:34:49;0.70;;;0.30;;
37777;SDS011;23615;51.506;7.678;2023-03-15T16:37:29;2.20;;;0.30;;
37777;SDS011;23615;51.506;7.678;2023-03-15T16:39:56;0.90;;;0.30;;
37777;SDS011;23615;51.506;7.678;2023-03-15T16:42:24;6.90;;;0.50;;
37777;SDS011;23615;51.506;7.678;2023-03-15T16:44:50;0.50;;;0.37;;
37777;SDS011;23615;51.506;7.678;2023-03-15T16:47:16;2.20;;;0.30;;
37777;SDS011;23615;51.506;7.678;2023-03-15T16:49:41;1.40;;;0.20;;
37777;SDS011;23615;51.506;7.678;2023-03-15T16:52:07;1.00;;;0.20;;
37777;SDS011;23615;51.506;7.678;2023-03-15T16:54:35;0.37;;;0.10;;
37777;SDS011;23615;51.506;7.678;2023-03-15T16:57:01;0.50;;;0.20;;
37777;SDS011;23615;51.506;7.678;2023-03-15T16:59:27;0.60;;;0.20;;
37777;SDS011;23615;51.506;7.678;2023-03-15T17:01:52;2.95;;;0.52;;
37777;SDS011;23615;51.506;7.678;2023-03-15T17:04:18;1.13;;;0.35;;
37777;SDS011;23615;51.506;7.678;2023-03-15T17:06:46;1.20;;;0.30;;
37777;SDS011;23615;51.506;7.678;2023-03-15T17:09:13;0.52;;;0.15;;
37777;SDS011;23615;51.506;7.678;2023-03-15T17:11:42;1.40;;;0.30;;
37777;SDS011;23615;51.506;7.678;2023-03-15T17:14:11;1.02;;;0.28;;
37777;SDS011;23615;51.506;7.678;2023-03-15T17:16:40;0.98;;;0.30;;
37777;SDS011;23615;51.506;7.678;2023-03-15T17:19:08;1.87;;;0.20;;
37777;SDS011;23615;51.506;7.678;2023-03-15T17:21:38;0.57;;;0.13;;
37777;SDS011;23615;51.506;7.678;2023-03-15T17:24:04;0.55;;;0.20;;
37777;SDS011;23615;51.506;7.678;2023-03-15T17:26:30;0.50;;;0.10;;
37777;SDS011;23615;51.506;7.678;2023-03-15T17:28:58;1.00;;;0.20;;
37777;SDS011;23615;51.506;7.678;2023-03-15T17:31:26;0.93;;;0.30;;
37777;SDS011;23615;51.506;7.678;2023-03-15T17:33:52;0.82;;;0.20;;
37777;SDS011;23615;51.506;7.678;2023-03-15T17:36:19;0.47;;;0.20;;
37777;SDS011;23615;51.506;7.678;2023-03-15T17:38:46;0.40;;;0.20;;
37777;SDS011;23615;51.506;7.678;2023-03-15T17:41:16;0.30;;;0.20;;
37777;SDS011;23615;51.506;7.678;2023-03-15T17:43:45;0.40;;;0.20;;
37777;SDS011;23615;51.506;7.678;2023-03-15T17:46:11;1.00;;;0.10;;
37777;SDS011;23615;51.506;7.678;2023-03-15T17:48:42;0.70;;;0.10;;
37777;SDS011;23615;51.506;7.678;2023-03-15T17:51:11;0.40;;;0.10;;
37777;SDS011;23615;51.506;7.678;2023-03-15T17:53:41;1.00;;;0.20;;
37777;SDS011;23615;51.506;7.678;2023-03-15T17:56:07;0.30;;;0.20;;
37777;SDS011;23615;51.506;7.678;2023-03-15T17:58:35;0.50;;;0.38;;
37777;SDS011;23615;51.506;7.678;2023-03-15T18:01:01;1.03;;;0.50;;
37777;SDS011;23615;51.506;7.678;2023-03-15T18:03:28;1.10;;;0.60;;
37777;SDS011;23615;51.506;7.678;2023-03-15T18:05:54;0.82;;;0.55;;
37777;SDS011;23615;51.506;7.678;2023-03-15T18:08:19;0.85;;;0.52;;
37777;SDS011;23615;51.506;7.678;2023-03-15T18:10:45;2.60;;;0.60;;
37777;SDS011;23615;51.506;7.678;2023-03-15T18:13:13;0.65;;;0.45;;
37777;SDS011;23615;51.506;7.678;2023-03-15T18:15:42;1.23;;;0.63;;
37777;SDS011;23615;51.506;7.678;2023-03-15T18:18:08;1.15;;;0.50;;
37777;SDS011;23615;51.506;7.678;2023-03-15T18:20:34;1.25;;;0.50;;
37777;SDS011;23615;51.506;7.678;2023-03-15T18:22:59;1.10;;;0.40;;
37777;SDS011;23615;51.506;7.678;2023-03-15T18:25:26;0.77;;;0.47;;